createdAt,value
2022-09-09T00:00:26.616Z,13.27
2022-09-09T00:03:28.213Z,13.23
2022-09-09T00:06:03.337Z,13.29
2022-09-09T00:09:11.481Z,13.21
2022-09-09T00:11:47.651Z,13.23
2022-09-09T00:14:26.560Z,13.16
2022-09-09T00:17:03.231Z,13.16
2022-09-09T00:19:47.341Z,13.16
2022-09-09T00:22:20.821Z,13.15
2022-09-09T00:24:54.506Z,13.18
2022-09-09T00:27:46.498Z,13.18
2022-09-09T00:30:23.658Z,13.18
2022-09-09T00:32:59.333Z,13.19
2022-09-09T00:35:32.357Z,13.24
2022-09-09T00:38:10.759Z,13.12
2022-09-09T00:40:50.229Z,13.08
2022-09-09T00:43:32.844Z,13.08
2022-09-09T00:46:12.160Z,13.20
2022-09-09T00:48:53.505Z,13.16
2022-09-09T00:51:40.424Z,13.13
2022-09-09T00:54:11.343Z,13.23
2022-09-09T00:56:47.091Z,13.21
2022-09-09T00:59:37.417Z,13.19
2022-09-09T01:02:29.896Z,13.23
2022-09-09T01:05:09.041Z,13.22
2022-09-09T01:07:37.444Z,13.27
2022-09-09T01:10:13.972Z,13.27
2022-09-09T01:12:48.110Z,13.37
2022-09-09T01:15:26.983Z,13.33
2022-09-09T01:18:11.514Z,13.30
2022-09-09T01:20:56.692Z,13.23
2022-09-09T01:23:39.736Z,13.25
2022-09-09T01:26:30.010Z,13.22
2022-09-09T01:29:00.899Z,13.22
2022-09-09T01:31:38.502Z,13.26
2022-09-09T01:34:16.615Z,13.16
2022-09-09T01:36:47.487Z,13.24
2022-09-09T01:39:15.244Z,13.22
2022-09-09T01:41:43.962Z,13.22
2022-09-09T01:44:13.898Z,13.10
2022-09-09T01:46:45.053Z,13.21
2022-09-09T01:49:17.944Z,13.14
2022-09-09T01:51:50.453Z,13.13
2022-09-09T01:54:20.269Z,13.20
2022-09-09T01:57:09.919Z,13.14
2022-09-09T02:00:05.220Z,13.20
2022-09-09T02:03:00.798Z,13.20
2022-09-09T02:05:36.450Z,13.18
2022-09-09T02:08:12.519Z,13.09
2022-09-09T02:11:23.946Z,13.12
2022-09-09T02:14:06.256Z,13.14
2022-09-09T02:16:51.177Z,13.06
2022-09-09T02:19:35.815Z,13.13
2022-09-09T02:22:10.245Z,13.24
2022-09-09T02:24:39.986Z,13.28
2022-09-09T02:27:18.226Z,13.17
2022-09-09T02:29:48.303Z,13.16
2022-09-09T02:32:23.334Z,13.10
2022-09-09T02:35:00.404Z,13.24
2022-09-09T02:37:33.109Z,13.20
2022-09-09T02:40:00.702Z,13.13
2022-09-09T02:42:27.937Z,13.18
2022-09-09T02:44:57.087Z,13.17
2022-09-09T02:47:44.562Z,13.22
2022-09-09T02:50:30.120Z,13.16
2022-09-09T02:53:26.244Z,13.10
2022-09-09T02:56:00.569Z,13.02
2022-09-09T02:58:28.948Z,13.20
2022-09-09T03:01:04.129Z,13.05
2022-09-09T03:03:33.222Z,13.00
2022-09-09T03:06:03.974Z,12.93
2022-09-09T03:08:31.115Z,12.88
2022-09-09T03:11:02.438Z,12.88
2022-09-09T03:13:32.639Z,12.86
2022-09-09T03:16:00.723Z,12.77
2022-09-09T03:18:30.096Z,12.76
2022-09-09T03:21:00.705Z,12.67
2022-09-09T03:23:29.282Z,12.16
2022-09-09T03:25:59.679Z,11.83
2022-09-09T03:28:36.735Z,11.20
2022-09-09T03:31:06.128Z,10.95
2022-09-09T03:33:39.141Z,10.82
2022-09-09T03:36:09.531Z,10.66
2022-09-09T03:38:37.427Z,10.50
2022-09-09T03:41:07.353Z,10.41
2022-09-09T03:43:35.437Z,10.42
2022-09-09T03:46:02.669Z,10.27
2022-09-09T03:48:30.679Z,10.26
2022-09-09T03:51:02.198Z,10.26
2022-09-09T03:53:31.366Z,10.26
2022-09-09T03:56:00.911Z,10.21
2022-09-09T03:58:29.592Z,10.27
2022-09-09T04:01:09.923Z,10.28
2022-09-09T04:03:38.714Z,10.20
2022-09-09T04:06:08.968Z,10.16
2022-09-09T04:08:37.416Z,10.28
2022-09-09T04:11:07.587Z,10.18
2022-09-09T04:13:41.250Z,10.27
2022-09-09T04:16:12.680Z,10.25
2022-09-09T04:18:40.871Z,10.34
2022-09-09T04:21:11.250Z,10.16
2022-09-09T04:23:39.365Z,10.03
2022-09-09T04:26:07.305Z,10.07
2022-09-09T04:28:37.553Z,10.20
2022-09-09T04:31:17.819Z,10.24
2022-09-09T04:33:47.432Z,10.11
2022-09-09T04:36:15.292Z,10.28
2022-09-09T04:38:43.040Z,10.17
2022-09-09T04:41:12.083Z,10.14
2022-09-09T04:43:41.816Z,10.03
2022-09-09T04:46:09.835Z,10.17
2022-09-09T04:48:37.111Z,9.97
2022-09-09T04:51:10.406Z,10.10
2022-09-09T04:53:39.117Z,9.99
2022-09-09T04:56:12.306Z,10.08
2022-09-09T04:58:44.154Z,9.98
2022-09-09T05:01:22.586Z,10.06
2022-09-09T05:03:51.637Z,10.18
2022-09-09T05:06:22.766Z,10.18
2022-09-09T05:08:54.169Z,10.15
2022-09-09T05:11:31.067Z,10.09
2022-09-09T05:14:03.566Z,10.22
2022-09-09T05:16:32.346Z,10.25
2022-09-09T05:19:00.270Z,10.14
2022-09-09T05:21:35.659Z,10.08
2022-09-09T05:24:03.053Z,10.07
2022-09-09T05:26:33.541Z,10.05
2022-09-09T05:29:02.287Z,10.02
2022-09-09T05:31:31.944Z,10.11
2022-09-09T05:34:03.576Z,10.10
2022-09-09T05:36:30.822Z,9.97
2022-09-09T05:38:58.180Z,9.95
2022-09-09T05:41:28.414Z,9.98
2022-09-09T05:43:57.492Z,9.85
2022-09-09T05:46:26.397Z,9.86
2022-09-09T05:48:55.308Z,9.92
2022-09-09T05:51:33.213Z,9.91
2022-09-09T05:54:05.835Z,-146.14
2022-09-09T05:56:37.433Z,-146.14
2022-09-09T05:59:07.937Z,-146.14
2022-09-09T06:01:37.431Z,-146.14
2022-09-09T06:04:06.027Z,-146.14
2022-09-09T06:06:37.855Z,-146.14
2022-09-09T06:09:26.745Z,9.55
2022-09-09T06:11:55.347Z,9.53
2022-09-09T06:14:23.610Z,9.65
2022-09-09T06:16:53.003Z,9.74
2022-09-09T06:19:27.466Z,9.60
2022-09-09T06:21:57.022Z,9.71
2022-09-09T06:24:24.262Z,9.61
2022-09-09T06:26:51.881Z,9.72
2022-09-09T06:29:23.646Z,9.57
2022-09-09T06:31:52.331Z,9.53
2022-09-09T06:34:22.795Z,9.49
2022-09-09T06:37:00.817Z,9.42
2022-09-09T06:39:37.608Z,9.52
2022-09-09T06:42:05.166Z,9.47
2022-09-09T06:44:55.581Z,9.39
2022-09-09T06:47:31.173Z,9.33
2022-09-09T06:49:59.466Z,9.39
2022-09-09T06:52:26.965Z,9.38
2022-09-09T06:54:56.127Z,9.38
2022-09-09T06:57:39.043Z,9.34
2022-09-09T07:00:15.224Z,9.47
2022-09-09T07:02:42.707Z,9.38
2022-09-09T07:05:11.076Z,9.43
2022-09-09T07:07:39.985Z,9.28
2022-09-09T07:10:08.610Z,9.22
2022-09-09T07:12:38.610Z,9.31
2022-09-09T07:15:07.364Z,9.27
2022-09-09T07:17:34.631Z,9.34
2022-09-09T07:20:03.699Z,9.25
2022-09-09T07:22:31.581Z,9.38
2022-09-09T07:24:59.323Z,9.36
2022-09-09T07:27:26.855Z,9.48
2022-09-09T07:29:55.448Z,9.49
2022-09-09T07:32:22.929Z,9.46
2022-09-09T07:34:51.676Z,9.31
2022-09-09T07:37:19.098Z,9.38
2022-09-09T07:39:47.756Z,9.36
2022-09-09T07:42:15.914Z,9.52
2022-09-09T07:44:43.413Z,9.37
2022-09-09T07:47:14.123Z,9.34
2022-09-09T07:49:47.309Z,9.27
2022-09-09T07:52:19.644Z,9.40
2022-09-09T07:54:51.620Z,9.34
2022-09-09T07:57:19.479Z,9.37
2022-09-09T07:59:47.688Z,9.42
2022-09-09T08:02:15.185Z,9.65
2022-09-09T08:04:42.857Z,9.63
2022-09-09T08:07:11.725Z,9.44
2022-09-09T08:09:46.129Z,9.52
2022-09-09T08:12:19.938Z,9.43
2022-09-09T08:14:47.446Z,9.31
2022-09-09T08:17:15.092Z,9.55
2022-09-09T08:19:43.515Z,9.41
2022-09-09T08:22:15.596Z,9.49
2022-09-09T08:24:42.810Z,9.51
2022-09-09T08:27:11.049Z,9.58
2022-09-09T08:29:40.055Z,9.49
2022-09-09T08:32:07.409Z,9.43
2022-09-09T08:34:35.684Z,9.50
2022-09-09T08:37:08.265Z,9.54
2022-09-09T08:39:39.280Z,9.44
2022-09-09T08:42:42.154Z,9.32
2022-09-09T08:45:25.807Z,9.41
2022-09-09T08:48:05.746Z,9.56
2022-09-09T08:50:39.583Z,9.61
2022-09-09T08:53:32.692Z,9.49
2022-09-09T08:56:04.602Z,9.50
2022-09-09T08:58:50.095Z,9.50
2022-09-09T09:01:42.160Z,9.57
2022-09-09T09:04:36.610Z,9.54
2022-09-09T09:07:32.114Z,9.59
2022-09-09T09:10:30.452Z,9.57
2022-09-09T09:12:58.010Z,9.96
2022-09-09T09:15:32.682Z,9.51
2022-09-09T09:18:00.748Z,9.76
2022-09-09T09:20:47.562Z,9.75
2022-09-09T09:23:23.606Z,9.63
2022-09-09T09:25:53.342Z,9.61
2022-09-09T09:28:26.991Z,9.80
2022-09-09T09:31:10.161Z,9.66
2022-09-09T09:33:50.741Z,9.72
2022-09-09T09:36:21.428Z,9.61
2022-09-09T09:41:47.161Z,9.78
2022-09-09T09:44:30.576Z,9.79
2022-09-09T09:47:16.833Z,9.71
2022-09-09T09:50:00.725Z,9.81
2022-09-09T09:52:33.245Z,9.79
2022-09-09T09:55:08.310Z,9.86
2022-09-09T09:57:37.705Z,9.78
2022-09-09T10:00:16.581Z,9.85
2022-09-09T10:02:48.197Z,9.80
2022-09-09T10:05:27.635Z,9.84
2022-09-09T10:08:11.605Z,9.90
2022-09-09T10:11:00.728Z,10.06
2022-09-09T10:13:33.901Z,10.06
2022-09-09T10:16:22.701Z,10.08
2022-09-09T10:19:14.102Z,10.28
2022-09-09T10:22:23.435Z,10.35
2022-09-09T10:25:07.212Z,10.25
2022-09-09T10:28:06.348Z,10.35
2022-09-09T10:30:56.584Z,10.17
2022-09-09T10:33:37.148Z,10.48
2022-09-09T10:36:20.145Z,10.04
2022-09-09T10:39:16.881Z,10.24
2022-09-09T10:42:13.642Z,10.18
2022-09-09T10:44:50.196Z,10.26
2022-09-09T10:47:40.675Z,10.30
2022-09-09T10:50:14.237Z,10.22
2022-09-09T10:53:00.541Z,10.44
2022-09-09T10:55:43.208Z,10.55
2022-09-09T10:58:18.512Z,10.28
2022-09-09T11:00:53.731Z,10.40
2022-09-09T11:03:26.954Z,10.73
2022-09-09T11:06:07.876Z,10.67
2022-09-09T11:08:39.464Z,10.79
2022-09-09T11:11:23.211Z,10.51
2022-09-09T11:13:54.882Z,10.67
2022-09-09T11:16:26.454Z,10.77
2022-09-09T11:19:01.732Z,11.00
2022-09-09T11:21:38.757Z,11.09
2022-09-09T11:24:29.583Z,10.93
2022-09-09T11:27:04.060Z,10.68
2022-09-09T11:29:45.162Z,10.72
2022-09-09T11:32:31.461Z,10.66
2022-09-09T11:35:18.352Z,10.54
2022-09-09T11:37:57.989Z,10.61
2022-09-09T11:40:27.507Z,10.60
2022-09-09T11:43:41.939Z,10.73
2022-09-09T11:46:11.176Z,10.73
2022-09-09T11:48:44.397Z,10.77
2022-09-09T11:51:22.033Z,10.65
2022-09-09T11:53:53.974Z,10.56
2022-09-09T11:56:45.032Z,10.58
2022-09-09T11:59:30.048Z,10.53
2022-09-09T12:02:37.698Z,10.55
2022-09-09T12:05:16.760Z,10.60
2022-09-09T12:07:54.872Z,10.86
2022-09-09T12:10:34.470Z,10.58
2022-09-09T12:13:20.336Z,10.61
2022-09-09T12:15:50.742Z,10.67
2022-09-09T12:18:24.994Z,10.76
2022-09-09T12:21:08.909Z,10.55
2022-09-09T12:23:47.804Z,10.59
2022-09-09T12:26:40.057Z,10.76
2022-09-09T12:29:27.691Z,10.55
2022-09-09T12:32:15.309Z,10.62
2022-09-09T12:34:47.876Z,10.62
2022-09-09T12:37:55.149Z,10.67
2022-09-09T12:40:32.600Z,10.56
2022-09-09T12:43:02.329Z,10.63
2022-09-09T12:45:33.886Z,10.86
2022-09-09T12:48:09.569Z,10.72
2022-09-09T12:50:39.737Z,10.67
2022-09-09T12:53:16.684Z,10.72
2022-09-09T12:56:11.541Z,10.83
2022-09-09T12:58:41.020Z,10.80
2022-09-09T13:01:22.268Z,10.68
2022-09-09T13:03:50.066Z,10.81
2022-09-09T13:06:32.493Z,10.92
2022-09-09T13:09:02.536Z,10.93
2022-09-09T13:11:43.310Z,10.69
2022-09-09T13:14:40.345Z,11.06
2022-09-09T13:17:18.331Z,11.08
2022-09-09T13:19:51.471Z,10.82
2022-09-09T13:22:32.028Z,10.74
2022-09-09T13:25:11.747Z,10.89
2022-09-09T13:27:42.058Z,10.84
2022-09-09T13:30:24.455Z,10.72
2022-09-09T13:33:24.238Z,10.70
2022-09-09T13:36:05.467Z,10.75
2022-09-09T13:38:36.825Z,10.78
2022-09-09T13:41:05.610Z,10.82
2022-09-09T13:43:39.400Z,10.79
2022-09-09T13:46:31.205Z,10.74
2022-09-09T13:49:12.453Z,10.76
2022-09-09T13:51:43.352Z,10.61
2022-09-09T13:54:12.375Z,10.56
2022-09-09T13:56:41.382Z,10.57
2022-09-09T13:59:17.500Z,10.67
2022-09-09T14:01:45.379Z,10.62
2022-09-09T14:04:13.180Z,10.71
2022-09-09T14:06:40.775Z,10.77
2022-09-09T14:09:11.367Z,10.76
2022-09-09T14:11:39.691Z,10.86
2022-09-09T14:14:06.867Z,10.79
2022-09-09T14:16:34.431Z,10.81
2022-09-09T14:19:02.170Z,10.77
2022-09-09T14:21:29.609Z,10.73
2022-09-09T14:23:59.085Z,10.72
2022-09-09T14:26:27.332Z,10.74
2022-09-09T14:28:55.796Z,10.73
2022-09-09T14:31:25.506Z,10.73
2022-09-09T14:33:53.846Z,10.79
2022-09-09T14:36:21.633Z,10.77
2022-09-09T14:38:49.312Z,10.81
2022-09-09T14:41:18.784Z,10.99
2022-09-09T14:43:46.706Z,10.85
2022-09-09T14:46:16.988Z,10.93
2022-09-09T14:48:45.284Z,10.93
2022-09-09T14:51:24.163Z,10.84
2022-09-09T14:54:00.240Z,10.99
2022-09-09T14:56:30.824Z,10.84
2022-09-09T14:59:01.826Z,10.87
2022-09-09T15:01:31.162Z,10.83
2022-09-09T15:04:00.965Z,10.98
2022-09-09T15:06:32.769Z,10.77
2022-09-09T15:09:01.417Z,10.86
2022-09-09T15:11:35.540Z,10.93
2022-09-09T15:14:03.154Z,10.92
2022-09-09T15:16:30.438Z,10.90
2022-09-09T15:18:59.058Z,10.82
2022-09-09T15:21:32.092Z,10.92
2022-09-09T15:24:00.251Z,10.86
2022-09-09T15:26:28.774Z,10.90
2022-09-09T15:28:56.064Z,10.84
2022-09-09T15:31:25.937Z,10.84
2022-09-09T15:34:01.500Z,10.87
2022-09-09T15:36:40.404Z,10.93
2022-09-09T15:39:13.640Z,10.88
2022-09-09T15:41:41.457Z,10.85
2022-09-09T15:44:10.487Z,10.89
2022-09-09T15:46:52.433Z,11.00
2022-09-09T15:49:28.582Z,10.95
2022-09-09T15:51:58.445Z,11.01
2022-09-09T15:54:27.166Z,11.00
2022-09-09T15:56:59.747Z,10.94
2022-09-09T15:59:29.177Z,10.95
2022-09-09T16:01:56.972Z,10.95
2022-09-09T16:04:25.537Z,11.02
2022-09-09T16:07:04.626Z,10.97
2022-09-09T16:09:32.996Z,10.96
2022-09-09T16:12:07.432Z,10.98
2022-09-09T16:14:36.757Z,11.00
2022-09-09T16:17:04.866Z,11.06
2022-09-09T16:19:32.796Z,11.03
2022-09-09T16:21:59.945Z,10.96
2022-09-09T16:24:27.807Z,11.01
2022-09-09T16:26:55.562Z,11.01
2022-09-09T16:29:23.684Z,10.97
2022-09-09T16:31:51.606Z,11.02
2022-09-09T16:34:19.670Z,11.03
2022-09-09T16:36:48.118Z,11.07
2022-09-09T16:39:17.975Z,10.96
2022-09-09T16:41:46.689Z,11.05
2022-09-09T16:44:16.679Z,11.00
2022-09-09T16:46:44.918Z,11.09
2022-09-09T16:49:15.849Z,11.09
2022-09-09T16:51:48.537Z,11.20
2022-09-09T16:54:18.250Z,11.19
2022-09-09T16:56:48.143Z,11.05
2022-09-09T16:59:17.604Z,11.14
2022-09-09T17:01:47.182Z,11.13
2022-09-09T17:04:25.175Z,11.14
2022-09-09T17:06:54.890Z,11.09
2022-09-09T17:09:23.898Z,11.21
2022-09-09T17:11:53.243Z,11.21
2022-09-09T17:14:23.523Z,11.12
2022-09-09T17:16:50.977Z,11.11
2022-09-09T17:19:18.913Z,11.17
2022-09-09T17:22:22.142Z,11.20
2022-09-09T17:24:36.085Z,11.12
2022-09-09T17:27:03.578Z,11.13
2022-09-09T17:29:30.782Z,11.10
2022-09-09T17:31:58.095Z,11.15
2022-09-09T17:34:26.231Z,11.19
2022-09-09T17:36:53.535Z,11.19
2022-09-09T17:39:21.179Z,11.20
2022-09-09T17:41:48.659Z,11.21
2022-09-09T17:44:16.451Z,11.17
2022-09-09T17:46:44.399Z,11.20
2022-09-09T17:49:18.378Z,11.17
2022-09-09T17:51:46.726Z,11.29
2022-09-09T17:54:21.176Z,11.19
2022-09-09T17:56:49.048Z,11.32
2022-09-09T17:59:18.683Z,11.22
2022-09-09T18:01:48.048Z,11.28
2022-09-09T18:04:17.456Z,11.30
2022-09-09T18:06:51.188Z,11.34
2022-09-09T18:09:21.928Z,11.33
2022-09-09T18:11:51.996Z,11.35
2022-09-09T18:14:22.413Z,11.29
2022-09-09T18:16:49.724Z,11.32
2022-09-09T18:19:21.314Z,11.33
2022-09-09T18:21:49.395Z,11.34
2022-09-09T18:24:19.939Z,11.43
2022-09-09T18:26:48.703Z,11.36
2022-09-09T18:29:20.067Z,11.34
2022-09-09T18:31:48.829Z,11.35
2022-09-09T18:34:18.262Z,11.35
2022-09-09T18:36:56.210Z,11.39
2022-09-09T18:39:28.121Z,11.36
2022-09-09T18:41:59.672Z,11.40
2022-09-09T18:44:28.091Z,11.44
2022-09-09T18:46:55.308Z,11.36
2022-09-09T18:49:24.678Z,11.37
2022-09-09T18:51:52.769Z,11.37
2022-09-09T18:54:26.236Z,11.38
2022-09-09T18:56:53.634Z,11.40
2022-09-09T18:59:23.831Z,11.43
2022-09-09T19:01:53.027Z,11.36
2022-09-09T19:04:24.619Z,11.39
2022-09-09T19:06:57.980Z,11.41
2022-09-09T19:09:32.451Z,11.42
2022-09-09T19:12:00.852Z,11.53
2022-09-09T19:14:29.363Z,11.53
2022-09-09T19:16:56.747Z,11.49
2022-09-09T19:19:27.051Z,11.49
2022-09-09T19:21:57.953Z,11.48
2022-09-09T19:24:28.712Z,11.49
2022-09-09T19:26:58.906Z,11.47
2022-09-09T19:29:30.171Z,11.46
2022-09-09T19:34:47.068Z,11.43
2022-09-09T19:37:18.161Z,11.44
2022-09-09T19:39:47.207Z,11.45
2022-09-09T19:42:15.217Z,11.43
2022-09-09T19:44:42.750Z,11.41
2022-09-09T19:47:10.100Z,11.44
2022-09-09T19:49:37.324Z,11.47
2022-09-09T19:52:04.837Z,11.54
2022-09-09T19:54:32.767Z,11.48
2022-09-09T19:57:01.271Z,11.48
2022-09-09T19:59:29.030Z,11.39
2022-09-09T20:01:56.942Z,11.50
2022-09-09T20:04:24.746Z,11.43
2022-09-09T20:06:53.306Z,11.40
2022-09-09T20:09:21.770Z,11.45
2022-09-09T20:11:50.177Z,11.45
2022-09-09T20:14:18.455Z,11.47
2022-09-09T20:16:46.502Z,11.48
2022-09-09T20:19:16.380Z,11.38
2022-09-09T20:21:47.839Z,11.43
2022-09-09T20:24:18.762Z,11.50
2022-09-09T20:26:49.251Z,11.45
2022-09-09T20:29:19.521Z,11.50
2022-09-09T20:31:48.092Z,11.50
2022-09-09T20:34:19.052Z,11.51
2022-09-09T20:36:46.706Z,11.53
2022-09-09T20:39:16.976Z,11.55
2022-09-09T20:41:46.137Z,11.51
2022-09-09T20:44:16.953Z,11.55
2022-09-09T20:46:49.657Z,11.58
2022-09-09T20:49:19.675Z,11.56
2022-09-09T20:51:49.791Z,11.56
2022-09-09T20:54:20.802Z,11.60
2022-09-09T20:56:50.417Z,11.54
2022-09-09T20:59:21.023Z,11.62
2022-09-09T21:01:49.117Z,11.57
2022-09-09T21:04:18.339Z,11.63
2022-09-09T21:06:46.014Z,11.54
2022-09-09T21:09:13.920Z,11.64
2022-09-09T21:11:42.246Z,11.60
2022-09-09T21:14:10.074Z,11.63
2022-09-09T21:16:37.364Z,11.67
2022-09-09T21:19:05.363Z,11.65
2022-09-09T21:21:32.704Z,11.69
2022-09-09T21:24:00.677Z,11.66
2022-09-09T21:26:28.460Z,11.69
2022-09-09T21:28:56.008Z,11.71
2022-09-09T21:31:27.876Z,11.66
2022-09-09T21:33:59.586Z,11.71
2022-09-09T21:36:28.601Z,11.59
2022-09-09T21:38:59.230Z,11.68
2022-09-09T21:41:26.985Z,11.58
2022-09-09T21:43:55.141Z,11.67
2022-09-09T21:46:23.681Z,11.64
2022-09-09T21:48:51.105Z,11.67
2022-09-09T21:51:19.031Z,11.66
2022-09-09T21:53:46.581Z,11.61
2022-09-09T21:56:17.383Z,11.60
2022-09-09T21:58:46.119Z,11.70
2022-09-09T22:01:17.637Z,11.68
2022-09-09T22:03:45.434Z,11.61
2022-09-09T22:06:15.573Z,11.66
2022-09-09T22:08:43.687Z,11.61
2022-09-09T22:11:17.274Z,11.69
2022-09-09T22:13:48.990Z,11.66
2022-09-09T22:16:19.464Z,11.62
2022-09-09T22:18:54.982Z,11.61
2022-09-09T22:21:23.115Z,11.62
2022-09-09T22:23:55.942Z,11.61
2022-09-09T22:26:25.495Z,11.68
2022-09-09T22:28:54.028Z,11.62
2022-09-09T22:31:23.098Z,11.61
2022-09-09T22:33:51.976Z,11.74
2022-09-09T22:36:20.476Z,11.61
2022-09-09T22:38:49.073Z,11.62
2022-09-09T22:41:17.233Z,11.61
2022-09-09T22:43:45.107Z,11.63
2022-09-09T22:46:13.688Z,11.60
2022-09-09T22:48:41.490Z,11.72
2022-09-09T22:51:12.329Z,11.61
2022-09-09T22:53:41.619Z,11.61
2022-09-09T22:56:15.461Z,11.58
2022-09-09T22:58:43.199Z,11.62
2022-09-09T23:01:14.764Z,11.63
2022-09-09T23:03:46.107Z,11.56
2022-09-09T23:06:22.223Z,11.54
2022-09-09T23:08:55.988Z,11.49
2022-09-09T23:11:28.122Z,11.53
2022-09-09T23:13:56.032Z,11.55
2022-09-09T23:16:25.967Z,11.49
2022-09-09T23:18:55.220Z,11.52
2022-09-09T23:21:26.399Z,11.66
2022-09-09T23:23:54.636Z,11.53
2022-09-09T23:26:24.109Z,11.49
2022-09-09T23:28:52.574Z,11.54
2022-09-09T23:31:22.447Z,11.51
2022-09-09T23:33:49.983Z,11.57
2022-09-09T23:36:19.929Z,11.55
2022-09-09T23:38:47.692Z,11.48
2022-09-09T23:41:20.973Z,11.51
2022-09-09T23:43:53.191Z,11.45
2022-09-09T23:46:25.279Z,11.54
2022-09-09T23:48:52.597Z,11.40
2022-09-09T23:51:23.740Z,11.43
2022-09-09T23:53:54.016Z,11.42
2022-09-09T23:56:22.544Z,11.40
2022-09-09T23:58:51.043Z,11.41
